sensor_id;sensor_type;location;lat;lon;timestamp;pressure;altitude;pressure_sealevel;temperature;humidity
58919;BME280;44704;50.122;19.932;2023-01-27T00:01:19;98551.29;;;-1.15;89.73
58919;BME280;44704;50.122;19.932;2023-01-27T00:03:46;98554.30;;;-1.16;89.91
58919;BME280;44704;50.122;19.932;2023-01-27T00:06:13;98555.48;;;-1.15;89.93
58919;BME280;44704;50.122;19.932;2023-01-27T00:08:40;98552.77;;;-1.16;89.74
58919;BME280;44704;50.122;19.932;2023-01-27T00:11:07;98550.99;;;-1.18;89.88
58919;BME280;44704;50.122;19.932;2023-01-27T00:13:52;98549.44;;;-1.20;89.88
58919;BME280;44704;50.122;19.932;2023-01-27T00:16:19;98548.41;;;-1.21;89.60
58919;BME280;44704;50.122;19.932;2023-01-27T00:18:46;98549.77;;;-1.22;89.51
58919;BME280;44704;50.122;19.932;2023-01-27T00:21:13;98546.73;;;-1.23;89.48
58919;BME280;44704;50.122;19.932;2023-01-27T00:23:59;98550.79;;;-1.25;89.74
58919;BME280;44704;50.122;19.932;2023-01-27T00:26:44;98547.85;;;-1.25;89.92
58919;BME280;44704;50.122;19.932;2023-01-27T00:29:12;98547.61;;;-1.26;90.21
58919;BME280;44704;50.122;19.932;2023-01-27T00:31:39;98550.15;;;-1.27;90.00
58919;BME280;44704;50.122;19.932;2023-01-27T00:34:24;98556.97;;;-1.27;90.09
58919;BME280;44704;50.122;19.932;2023-01-27T00:36:51;98553.42;;;-1.27;90.01
58919;BME280;44704;50.122;19.932;2023-01-27T00:39:18;98552.60;;;-1.28;89.75
58919;BME280;44704;50.122;19.932;2023-01-27T00:41:45;98550.52;;;-1.28;90.11
58919;BME280;44704;50.122;19.932;2023-01-27T00:44:12;98552.98;;;-1.28;90.30
58919;BME280;44704;50.122;19.932;2023-01-27T00:46:40;98552.79;;;-1.30;90.05
58919;BME280;44704;50.122;19.932;2023-01-27T00:49:09;98550.98;;;-1.31;89.76
58919;BME280;44704;50.122;19.932;2023-01-27T00:51:36;98546.68;;;-1.33;89.98
58919;BME280;44704;50.122;19.932;2023-01-27T00:54:04;98546.88;;;-1.31;90.10
58919;BME280;44704;50.122;19.932;2023-01-27T00:56:31;98545.65;;;-1.31;89.90
58919;BME280;44704;50.122;19.932;2023-01-27T00:58:58;98547.92;;;-1.32;89.63
58919;BME280;44704;50.122;19.932;2023-01-27T01:01:26;98549.41;;;-1.33;89.54
58919;BME280;44704;50.122;19.932;2023-01-27T01:03:53;98547.98;;;-1.33;89.73
58919;BME280;44704;50.122;19.932;2023-01-27T01:06:21;98543.81;;;-1.32;89.52
58919;BME280;44704;50.122;19.932;2023-01-27T01:08:48;98542.71;;;-1.32;89.53
58919;BME280;44704;50.122;19.932;2023-01-27T01:11:18;98537.34;;;-1.34;89.11
58919;BME280;44704;50.122;19.932;2023-01-27T01:13:46;98532.09;;;-1.35;89.31
58919;BME280;44704;50.122;19.932;2023-01-27T01:16:18;98536.90;;;-1.36;89.19
58919;BME280;44704;50.122;19.932;2023-01-27T01:18:46;98539.87;;;-1.37;88.94
58919;BME280;44704;50.122;19.932;2023-01-27T01:21:13;98539.05;;;-1.40;88.83
58919;BME280;44704;50.122;19.932;2023-01-27T01:23:43;98533.89;;;-1.41;88.91
58919;BME280;44704;50.122;19.932;2023-01-27T01:26:12;98537.55;;;-1.42;89.19
58919;BME280;44704;50.122;19.932;2023-01-27T01:28:39;98534.84;;;-1.43;88.88
58919;BME280;44704;50.122;19.932;2023-01-27T01:31:09;98536.36;;;-1.43;88.87
58919;BME280;44704;50.122;19.932;2023-01-27T01:33:36;98535.39;;;-1.44;88.94
58919;BME280;44704;50.122;19.932;2023-01-27T01:36:09;98531.89;;;-1.44;89.19
58919;BME280;44704;50.122;19.932;2023-01-27T01:38:37;98528.65;;;-1.44;89.08
58919;BME280;44704;50.122;19.932;2023-01-27T01:41:06;98526.41;;;-1.41;89.39
58919;BME280;44704;50.122;19.932;2023-01-27T01:43:33;98529.89;;;-1.41;89.31
58919;BME280;44704;50.122;19.932;2023-01-27T01:46:01;98529.71;;;-1.40;89.27
58919;BME280;44704;50.122;19.932;2023-01-27T01:48:32;98531.75;;;-1.41;89.29
58919;BME280;44704;50.122;19.932;2023-01-27T01:51:13;98530.12;;;-1.42;88.95
58919;BME280;44704;50.122;19.932;2023-01-27T01:56:16;98533.98;;;-1.42;89.36
58919;BME280;44704;50.122;19.932;2023-01-27T01:58:45;98531.65;;;-1.40;89.23
58919;BME280;44704;50.122;19.932;2023-01-27T02:01:15;98533.33;;;-1.39;89.47
58919;BME280;44704;50.122;19.932;2023-01-27T02:03:49;98530.26;;;-1.39;89.25
58919;BME280;44704;50.122;19.932;2023-01-27T02:06:18;98530.52;;;-1.40;89.42
58919;BME280;44704;50.122;19.932;2023-01-27T02:08:48;98529.65;;;-1.40;89.31
58919;BME280;44704;50.122;19.932;2023-01-27T02:11:16;98526.68;;;-1.39;89.41
58919;BME280;44704;50.122;19.932;2023-01-27T02:13:44;98527.52;;;-1.37;89.21
58919;BME280;44704;50.122;19.932;2023-01-27T02:16:11;98530.25;;;-1.36;89.49
58919;BME280;44704;50.122;19.932;2023-01-27T02:18:39;98530.52;;;-1.33;89.75
58919;BME280;44704;50.122;19.932;2023-01-27T02:21:07;98534.77;;;-1.29;89.53
58919;BME280;44704;50.122;19.932;2023-01-27T02:28:32;98537.99;;;-1.28;89.27
58919;BME280;44704;50.122;19.932;2023-01-27T02:31:00;98539.38;;;-1.31;88.91
58919;BME280;44704;50.122;19.932;2023-01-27T02:33:27;98542.14;;;-1.33;88.69
58919;BME280;44704;50.122;19.932;2023-01-27T02:36:06;98538.84;;;-1.36;88.83
58919;BME280;44704;50.122;19.932;2023-01-27T02:38:39;98541.98;;;-1.37;88.93
58919;BME280;44704;50.122;19.932;2023-01-27T02:41:13;98537.43;;;-1.38;88.67
58919;BME280;44704;50.122;19.932;2023-01-27T02:43:42;98535.89;;;-1.39;88.59
58919;BME280;44704;50.122;19.932;2023-01-27T02:46:09;98535.33;;;-1.40;88.29
58919;BME280;44704;50.122;19.932;2023-01-27T02:48:35;98536.12;;;-1.42;88.36
58919;BME280;44704;50.122;19.932;2023-01-27T02:51:03;98533.29;;;-1.45;88.24
58919;BME280;44704;50.122;19.932;2023-01-27T02:53:31;98531.62;;;-1.48;88.12
58919;BME280;44704;50.122;19.932;2023-01-27T02:55:58;98532.71;;;-1.50;88.27
58919;BME280;44704;50.122;19.932;2023-01-27T02:58:25;98533.92;;;-1.51;88.72
58919;BME280;44704;50.122;19.932;2023-01-27T03:00:56;98532.66;;;-1.51;88.82
58919;BME280;44704;50.122;19.932;2023-01-27T03:03:23;98534.63;;;-1.51;88.65
58919;BME280;44704;50.122;19.932;2023-01-27T03:05:50;98537.89;;;-1.50;88.98
58919;BME280;44704;50.122;19.932;2023-01-27T03:08:18;98535.65;;;-1.49;89.25
58919;BME280;44704;50.122;19.932;2023-01-27T03:10:52;98540.04;;;-1.47;89.55
58919;BME280;44704;50.122;19.932;2023-01-27T03:13:25;98538.20;;;-1.45;89.23
58919;BME280;44704;50.122;19.932;2023-01-27T03:15:53;98538.79;;;-1.44;89.40
58919;BME280;44704;50.122;19.932;2023-01-27T03:18:42;98535.22;;;-1.42;89.20
58919;BME280;44704;50.122;19.932;2023-01-27T03:21:16;98533.39;;;-1.41;89.33
58919;BME280;44704;50.122;19.932;2023-01-27T03:23:44;98532.48;;;-1.41;88.99
58919;BME280;44704;50.122;19.932;2023-01-27T03:26:20;98527.38;;;-1.45;88.67
58919;BME280;44704;50.122;19.932;2023-01-27T03:28:51;98528.42;;;-1.46;88.77
58919;BME280;44704;50.122;19.932;2023-01-27T03:31:40;98530.52;;;-1.48;88.62
58919;BME280;44704;50.122;19.932;2023-01-27T03:34:07;98532.81;;;-1.49;88.62
58919;BME280;44704;50.122;19.932;2023-01-27T03:36:46;98527.65;;;-1.51;88.58
58919;BME280;44704;50.122;19.932;2023-01-27T03:39:32;98525.84;;;-1.52;88.48
58919;BME280;44704;50.122;19.932;2023-01-27T03:42:17;98523.03;;;-1.53;88.35
58919;BME280;44704;50.122;19.932;2023-01-27T03:45:03;98519.73;;;-1.54;88.45
58919;BME280;44704;50.122;19.932;2023-01-27T03:47:50;98518.23;;;-1.55;88.41
58919;BME280;44704;50.122;19.932;2023-01-27T03:50:17;98515.96;;;-1.56;88.40
58919;BME280;44704;50.122;19.932;2023-01-27T04:01:34;98518.09;;;-1.60;87.78
58919;BME280;44704;50.122;19.932;2023-01-27T04:12:14;98526.04;;;-1.63;87.34
58919;BME280;44704;50.122;19.932;2023-01-27T04:14:40;98528.54;;;-1.63;87.45
58919;BME280;44704;50.122;19.932;2023-01-27T04:17:13;98527.90;;;-1.62;87.77
58919;BME280;44704;50.122;19.932;2023-01-27T04:19:41;98526.36;;;-1.61;87.61
58919;BME280;44704;50.122;19.932;2023-01-27T04:22:13;98527.62;;;-1.59;87.49
58919;BME280;44704;50.122;19.932;2023-01-27T04:24:41;98524.64;;;-1.59;87.07
58919;BME280;44704;50.122;19.932;2023-01-27T04:27:12;98524.53;;;-1.60;87.21
58919;BME280;44704;50.122;19.932;2023-01-27T04:29:40;98529.97;;;-1.61;87.37
58919;BME280;44704;50.122;19.932;2023-01-27T04:32:09;98525.13;;;-1.62;87.22
58919;BME280;44704;50.122;19.932;2023-01-27T04:34:36;98524.70;;;-1.63;86.92
58919;BME280;44704;50.122;19.932;2023-01-27T04:37:03;98529.33;;;-1.63;87.22
58919;BME280;44704;50.122;19.932;2023-01-27T04:39:30;98527.26;;;-1.64;86.89
58919;BME280;44704;50.122;19.932;2023-01-27T04:41:57;98530.60;;;-1.63;86.99
58919;BME280;44704;50.122;19.932;2023-01-27T04:44:23;98532.04;;;-1.64;87.30
58919;BME280;44704;50.122;19.932;2023-01-27T04:46:50;98528.99;;;-1.64;87.22
58919;BME280;44704;50.122;19.932;2023-01-27T04:49:17;98529.91;;;-1.65;87.21
58919;BME280;44704;50.122;19.932;2023-01-27T04:51:44;98528.89;;;-1.66;87.10
58919;BME280;44704;50.122;19.932;2023-01-27T04:54:10;98526.88;;;-1.67;87.35
58919;BME280;44704;50.122;19.932;2023-01-27T04:56:38;98528.25;;;-1.68;87.64
58919;BME280;44704;50.122;19.932;2023-01-27T04:59:07;98528.09;;;-1.68;87.20
58919;BME280;44704;50.122;19.932;2023-01-27T05:01:36;98528.33;;;-1.69;87.45
58919;BME280;44704;50.122;19.932;2023-01-27T05:04:04;98529.48;;;-1.70;87.31
58919;BME280;44704;50.122;19.932;2023-01-27T05:06:31;98531.70;;;-1.70;87.53
58919;BME280;44704;50.122;19.932;2023-01-27T05:08:57;98537.21;;;-1.69;87.61
58919;BME280;44704;50.122;19.932;2023-01-27T05:11:23;98544.38;;;-1.67;87.67
58919;BME280;44704;50.122;19.932;2023-01-27T05:13:50;98542.58;;;-1.69;87.56
58919;BME280;44704;50.122;19.932;2023-01-27T05:16:21;98544.58;;;-1.69;87.68
58919;BME280;44704;50.122;19.932;2023-01-27T05:18:49;98542.68;;;-1.68;87.55
58919;BME280;44704;50.122;19.932;2023-01-27T05:21:19;98541.87;;;-1.69;87.38
58919;BME280;44704;50.122;19.932;2023-01-27T05:23:46;98548.94;;;-1.70;86.81
58919;BME280;44704;50.122;19.932;2023-01-27T05:26:20;98547.98;;;-1.71;87.15
58919;BME280;44704;50.122;19.932;2023-01-27T05:28:48;98550.75;;;-1.70;87.32
58919;BME280;44704;50.122;19.932;2023-01-27T05:31:20;98547.79;;;-1.69;87.21
58919;BME280;44704;50.122;19.932;2023-01-27T05:33:48;98543.91;;;-1.68;86.97
58919;BME280;44704;50.122;19.932;2023-01-27T05:36:17;98544.14;;;-1.68;86.94
58919;BME280;44704;50.122;19.932;2023-01-27T05:38:44;98541.58;;;-1.69;86.59
58919;BME280;44704;50.122;19.932;2023-01-27T05:41:12;98544.00;;;-1.71;86.40
58919;BME280;44704;50.122;19.932;2023-01-27T05:43:40;98543.23;;;-1.72;86.29
58919;BME280;44704;50.122;19.932;2023-01-27T05:48:36;98543.56;;;-1.74;85.93
58919;BME280;44704;50.122;19.932;2023-01-27T05:51:04;98546.58;;;-1.75;85.96
58919;BME280;44704;50.122;19.932;2023-01-27T05:53:31;98543.86;;;-1.76;85.77
58919;BME280;44704;50.122;19.932;2023-01-27T05:55:57;98550.07;;;-1.76;86.04
58919;BME280;44704;50.122;19.932;2023-01-27T05:58:25;98549.30;;;-1.77;85.69
58919;BME280;44704;50.122;19.932;2023-01-27T06:00:52;98555.70;;;-1.77;85.58
58919;BME280;44704;50.122;19.932;2023-01-27T06:03:19;98558.64;;;-1.78;85.72
58919;BME280;44704;50.122;19.932;2023-01-27T06:05:52;98560.20;;;-1.78;85.93
58919;BME280;44704;50.122;19.932;2023-01-27T06:08:20;98564.77;;;-1.77;86.08
58919;BME280;44704;50.122;19.932;2023-01-27T06:10:46;98567.42;;;-1.77;85.76
58919;BME280;44704;50.122;19.932;2023-01-27T06:13:12;98570.52;;;-1.76;85.56
58919;BME280;44704;50.122;19.932;2023-01-27T06:15:40;98575.49;;;-1.76;85.43
58919;BME280;44704;50.122;19.932;2023-01-27T06:18:07;98574.46;;;-1.74;85.80
58919;BME280;44704;50.122;19.932;2023-01-27T06:20:34;98574.23;;;-1.74;85.35
58919;BME280;44704;50.122;19.932;2023-01-27T06:23:00;98573.81;;;-1.73;85.52
58919;BME280;44704;50.122;19.932;2023-01-27T06:25:26;98567.09;;;-1.74;85.19
58919;BME280;44704;50.122;19.932;2023-01-27T06:27:54;98571.92;;;-1.73;85.30
58919;BME280;44704;50.122;19.932;2023-01-27T06:30:20;98576.58;;;-1.73;85.45
58919;BME280;44704;50.122;19.932;2023-01-27T06:32:46;98580.27;;;-1.72;85.36
58919;BME280;44704;50.122;19.932;2023-01-27T06:35:12;98579.89;;;-1.72;85.31
58919;BME280;44704;50.122;19.932;2023-01-27T06:37:39;98580.15;;;-1.71;85.29
58919;BME280;44704;50.122;19.932;2023-01-27T06:40:05;98580.45;;;-1.72;84.81
58919;BME280;44704;50.122;19.932;2023-01-27T06:42:34;98582.42;;;-1.72;84.90
58919;BME280;44704;50.122;19.932;2023-01-27T06:45:00;98582.42;;;-1.72;84.76
58919;BME280;44704;50.122;19.932;2023-01-27T06:47:26;98579.77;;;-1.73;84.85
58919;BME280;44704;50.122;19.932;2023-01-27T06:49:53;98585.23;;;-1.72;84.79
58919;BME280;44704;50.122;19.932;2023-01-27T06:52:19;98585.78;;;-1.74;84.25
58919;BME280;44704;50.122;19.932;2023-01-27T06:54:45;98585.38;;;-1.75;84.39
58919;BME280;44704;50.122;19.932;2023-01-27T06:57:11;98583.91;;;-1.74;84.32
58919;BME280;44704;50.122;19.932;2023-01-27T06:59:37;98583.34;;;-1.76;84.22
58919;BME280;44704;50.122;19.932;2023-01-27T07:02:04;98585.54;;;-1.77;84.20
58919;BME280;44704;50.122;19.932;2023-01-27T07:04:30;98586.48;;;-1.75;84.25
58919;BME280;44704;50.122;19.932;2023-01-27T07:06:56;98588.35;;;-1.74;84.38
58919;BME280;44704;50.122;19.932;2023-01-27T07:09:22;98588.95;;;-1.75;84.15
58919;BME280;44704;50.122;19.932;2023-01-27T07:11:48;98594.71;;;-1.74;84.14
58919;BME280;44704;50.122;19.932;2023-01-27T07:14:14;98593.65;;;-1.74;83.99
58919;BME280;44704;50.122;19.932;2023-01-27T07:16:41;98593.55;;;-1.73;84.24
58919;BME280;44704;50.122;19.932;2023-01-27T07:19:07;98594.80;;;-1.72;84.09
58919;BME280;44704;50.122;19.932;2023-01-27T07:21:33;98594.80;;;-1.70;83.84
58919;BME280;44704;50.122;19.932;2023-01-27T07:23:59;98596.48;;;-1.69;83.46
58919;BME280;44704;50.122;19.932;2023-01-27T07:26:25;98595.64;;;-1.67;83.64
58919;BME280;44704;50.122;19.932;2023-01-27T07:28:52;98594.31;;;-1.67;83.53
58919;BME280;44704;50.122;19.932;2023-01-27T07:31:18;98601.25;;;-1.67;83.49
58919;BME280;44704;50.122;19.932;2023-01-27T07:33:45;98601.82;;;-1.67;83.28
58919;BME280;44704;50.122;19.932;2023-01-27T07:36:11;98606.59;;;-1.67;83.52
58919;BME280;44704;50.122;19.932;2023-01-27T07:38:37;98604.77;;;-1.66;83.56
58919;BME280;44704;50.122;19.932;2023-01-27T07:41:04;98605.66;;;-1.65;83.50
58919;BME280;44704;50.122;19.932;2023-01-27T07:43:32;98609.97;;;-1.63;83.32
58919;BME280;44704;50.122;19.932;2023-01-27T07:45:58;98607.10;;;-1.62;83.09
58919;BME280;44704;50.122;19.932;2023-01-27T07:48:25;98605.74;;;-1.61;83.48
58919;BME280;44704;50.122;19.932;2023-01-27T07:50:51;98598.24;;;-1.58;83.34
58919;BME280;44704;50.122;19.932;2023-01-27T07:53:17;98599.55;;;-1.57;83.14
58919;BME280;44704;50.122;19.932;2023-01-27T07:55:43;98600.20;;;-1.57;82.95
58919;BME280;44704;50.122;19.932;2023-01-27T07:58:10;98602.77;;;-1.58;82.60
58919;BME280;44704;50.122;19.932;2023-01-27T08:00:36;98604.64;;;-1.59;82.93
58919;BME280;44704;50.122;19.932;2023-01-27T08:03:02;98597.52;;;-1.60;82.68
58919;BME280;44704;50.122;19.932;2023-01-27T08:05:31;98603.94;;;-1.58;82.48
58919;BME280;44704;50.122;19.932;2023-01-27T08:07:58;98606.10;;;-1.59;82.60
58919;BME280;44704;50.122;19.932;2023-01-27T08:10:28;98608.29;;;-1.56;82.99
58919;BME280;44704;50.122;19.932;2023-01-27T08:12:55;98612.66;;;-1.54;83.03
58919;BME280;44704;50.122;19.932;2023-01-27T08:15:21;98616.16;;;-1.53;82.97
58919;BME280;44704;50.122;19.932;2023-01-27T08:17:54;98614.45;;;-1.54;82.47
58919;BME280;44704;50.122;19.932;2023-01-27T08:20:23;98621.34;;;-1.53;82.77
58919;BME280;44704;50.122;19.932;2023-01-27T08:22:51;98619.58;;;-1.54;82.85
58919;BME280;44704;50.122;19.932;2023-01-27T08:25:18;98620.53;;;-1.54;82.49
58919;BME280;44704;50.122;19.932;2023-01-27T08:27:48;98620.00;;;-1.54;82.49
58919;BME280;44704;50.122;19.932;2023-01-27T08:30:15;98621.65;;;-1.53;82.61
58919;BME280;44704;50.122;19.932;2023-01-27T08:32:41;98626.80;;;-1.51;82.48
58919;BME280;44704;50.122;19.932;2023-01-27T08:35:08;98628.27;;;-1.49;82.94
58919;BME280;44704;50.122;19.932;2023-01-27T08:37:34;98631.80;;;-1.48;82.90
58919;BME280;44704;50.122;19.932;2023-01-27T08:40:00;98634.48;;;-1.44;83.07
58919;BME280;44704;50.122;19.932;2023-01-27T08:42:27;98635.44;;;-1.42;82.87
58919;BME280;44704;50.122;19.932;2023-01-27T08:44:53;98634.20;;;-1.40;83.19
58919;BME280;44704;50.122;19.932;2023-01-27T08:47:19;98632.19;;;-1.38;82.90
58919;BME280;44704;50.122;19.932;2023-01-27T08:49:45;98632.30;;;-1.37;82.97
58919;BME280;44704;50.122;19.932;2023-01-27T08:52:13;98632.99;;;-1.37;83.07
58919;BME280;44704;50.122;19.932;2023-01-27T08:54:39;98636.67;;;-1.35;82.82
58919;BME280;44704;50.122;19.932;2023-01-27T08:57:05;98639.38;;;-1.32;82.86
58919;BME280;44704;50.122;19.932;2023-01-27T08:59:31;98641.49;;;-1.28;83.23
58919;BME280;44704;50.122;19.932;2023-01-27T09:01:57;98639.79;;;-1.26;82.92
58919;BME280;44704;50.122;19.932;2023-01-27T09:04:24;98643.36;;;-1.22;83.03
58919;BME280;44704;50.122;19.932;2023-01-27T09:06:50;98641.46;;;-1.18;82.99
58919;BME280;44704;50.122;19.932;2023-01-27T09:09:19;98639.53;;;-1.13;82.80
58919;BME280;44704;50.122;19.932;2023-01-27T09:11:45;98636.66;;;-1.10;82.51
58919;BME280;44704;50.122;19.932;2023-01-27T09:14:12;98634.67;;;-1.06;82.25
58919;BME280;44704;50.122;19.932;2023-01-27T09:16:39;98631.52;;;-1.04;82.22
58919;BME280;44704;50.122;19.932;2023-01-27T09:19:05;98635.77;;;-1.00;82.13
58919;BME280;44704;50.122;19.932;2023-01-27T09:21:32;98637.73;;;-0.95;82.21
58919;BME280;44704;50.122;19.932;2023-01-27T09:23:58;98637.41;;;-0.90;82.08
58919;BME280;44704;50.122;19.932;2023-01-27T09:26:24;98639.52;;;-0.87;82.13
58919;BME280;44704;50.122;19.932;2023-01-27T09:28:50;98637.14;;;-0.83;82.00
58919;BME280;44704;50.122;19.932;2023-01-27T09:31:17;98640.85;;;-0.79;81.71
58919;BME280;44704;50.122;19.932;2023-01-27T09:33:43;98644.48;;;-0.77;81.61
58919;BME280;44704;50.122;19.932;2023-01-27T09:36:18;98646.06;;;-0.75;81.65
58919;BME280;44704;50.122;19.932;2023-01-27T09:38:54;98646.40;;;-0.71;81.72
58919;BME280;44704;50.122;19.932;2023-01-27T09:49:41;98641.73;;;-0.60;81.54
58919;BME280;44704;50.122;19.932;2023-01-27T09:55:03;98636.35;;;-0.53;81.61
58919;BME280;44704;50.122;19.932;2023-01-27T09:57:46;98639.52;;;-0.51;81.46
58919;BME280;44704;50.122;19.932;2023-01-27T10:22:17;98609.81;;;-0.42;81.41
58919;BME280;44704;50.122;19.932;2023-01-27T10:27:37;98615.20;;;-0.36;81.19
58919;BME280;44704;50.122;19.932;2023-01-27T10:30:37;98608.94;;;-0.34;81.36
58919;BME280;44704;50.122;19.932;2023-01-27T10:33:20;98607.11;;;-0.30;81.72
58919;BME280;44704;50.122;19.932;2023-01-27T10:35:56;98607.23;;;-0.27;81.84
58919;BME280;44704;50.122;19.932;2023-01-27T10:41:38;98605.20;;;-0.20;81.29
58919;BME280;44704;50.122;19.932;2023-01-27T10:44:34;98606.95;;;-0.18;81.22
58919;BME280;44704;50.122;19.932;2023-01-27T10:47:27;98607.72;;;-0.15;81.11
58919;BME280;44704;50.122;19.932;2023-01-27T10:49:59;98607.89;;;-0.15;80.76
58919;BME280;44704;50.122;19.932;2023-01-27T10:52:35;98604.09;;;-0.13;81.07
58919;BME280;44704;50.122;19.932;2023-01-27T10:55:18;98604.95;;;-0.10;81.38
58919;BME280;44704;50.122;19.932;2023-01-27T10:57:55;98607.79;;;-0.06;81.13
58919;BME280;44704;50.122;19.932;2023-01-27T11:05:32;98610.05;;;-0.01;80.68
58919;BME280;44704;50.122;19.932;2023-01-27T11:08:22;98613.20;;;-0.01;80.34
58919;BME280;44704;50.122;19.932;2023-01-27T11:10:53;98608.13;;;0.02;80.31
58919;BME280;44704;50.122;19.932;2023-01-27T11:13:39;98613.30;;;0.05;80.58
58919;BME280;44704;50.122;19.932;2023-01-27T11:16:13;98609.25;;;0.14;82.33
58919;BME280;44704;50.122;19.932;2023-01-27T11:18:41;98612.16;;;0.28;81.07
58919;BME280;44704;50.122;19.932;2023-01-27T11:21:17;98608.67;;;0.30;80.15
58919;BME280;44704;50.122;19.932;2023-01-27T11:23:48;98608.66;;;0.32;79.90
58919;BME280;44704;50.122;19.932;2023-01-27T11:26:38;98611.63;;;0.32;79.90
58919;BME280;44704;50.122;19.932;2023-01-27T11:29:37;98608.80;;;0.32;79.55
58919;BME280;44704;50.122;19.932;2023-01-27T11:32:30;98612.12;;;0.30;79.19
58919;BME280;44704;50.122;19.932;2023-01-27T11:35:11;98610.65;;;0.27;78.98
58919;BME280;44704;50.122;19.932;2023-01-27T11:37:50;98606.75;;;0.24;79.06
58919;BME280;44704;50.122;19.932;2023-01-27T11:40:21;98609.29;;;0.18;78.83
58919;BME280;44704;50.122;19.932;2023-01-27T11:42:51;98611.25;;;0.14;79.13
58919;BME280;44704;50.122;19.932;2023-01-27T11:45:20;98604.75;;;0.10;78.95
58919;BME280;44704;50.122;19.932;2023-01-27T11:47:50;98604.59;;;0.06;79.05
58919;BME280;44704;50.122;19.932;2023-01-27T11:50:19;98609.35;;;0.04;78.92
58919;BME280;44704;50.122;19.932;2023-01-27T11:52:49;98605.36;;;-0.02;78.87
58919;BME280;44704;50.122;19.932;2023-01-27T11:55:22;98609.23;;;-0.06;79.24
58919;BME280;44704;50.122;19.932;2023-01-27T11:58:14;98607.02;;;-0.07;79.49
58919;BME280;44704;50.122;19.932;2023-01-27T12:00:55;98606.92;;;-0.10;79.48
58919;BME280;44704;50.122;19.932;2023-01-27T12:03:34;98610.39;;;-0.10;79.65
58919;BME280;44704;50.122;19.932;2023-01-27T12:06:17;98617.14;;;-0.10;79.73
58919;BME280;44704;50.122;19.932;2023-01-27T12:08:46;98612.38;;;-0.12;79.51
58919;BME280;44704;50.122;19.932;2023-01-27T12:11:23;98619.22;;;-0.13;79.84
58919;BME280;44704;50.122;19.932;2023-01-27T12:16:18;98619.84;;;-0.16;79.81
58919;BME280;44704;50.122;19.932;2023-01-27T12:18:51;98620.45;;;-0.17;80.08
58919;BME280;44704;50.122;19.932;2023-01-27T12:21:20;98616.97;;;-0.18;80.25
58919;BME280;44704;50.122;19.932;2023-01-27T12:23:48;98617.27;;;-0.21;80.06
58919;BME280;44704;50.122;19.932;2023-01-27T12:26:17;98618.11;;;-0.22;80.32
58919;BME280;44704;50.122;19.932;2023-01-27T12:28:53;98616.88;;;-0.21;80.67
58919;BME280;44704;50.122;19.932;2023-01-27T12:31:30;98612.98;;;-0.19;81.01
58919;BME280;44704;50.122;19.932;2023-01-27T12:34:01;98614.39;;;-0.19;80.57
58919;BME280;44704;50.122;19.932;2023-01-27T12:36:38;98613.59;;;-0.20;80.69
58919;BME280;44704;50.122;19.932;2023-01-27T12:41:49;98613.30;;;-0.22;80.65
58919;BME280;44704;50.122;19.932;2023-01-27T12:44:17;98612.80;;;-0.24;80.84
58919;BME280;44704;50.122;19.932;2023-01-27T12:47:26;98609.16;;;-0.25;81.02
58919;BME280;44704;50.122;19.932;2023-01-27T12:56:16;98611.77;;;-0.28;81.49
58919;BME280;44704;50.122;19.932;2023-01-27T13:04:20;98607.42;;;-0.25;82.12
58919;BME280;44704;50.122;19.932;2023-01-27T13:06:56;98606.88;;;-0.24;81.98
58919;BME280;44704;50.122;19.932;2023-01-27T13:09:35;98610.17;;;-0.24;82.00
58919;BME280;44704;50.122;19.932;2023-01-27T13:12:11;98612.44;;;-0.27;82.08
58919;BME280;44704;50.122;19.932;2023-01-27T13:14:41;98610.51;;;-0.27;82.20
58919;BME280;44704;50.122;19.932;2023-01-27T13:19:54;98608.73;;;-0.27;82.40
58919;BME280;44704;50.122;19.932;2023-01-27T13:22:23;98603.79;;;-0.30;81.97
58919;BME280;44704;50.122;19.932;2023-01-27T13:24:58;98609.95;;;-0.30;82.53
58919;BME280;44704;50.122;19.932;2023-01-27T13:27:33;98609.58;;;-0.30;82.48
58919;BME280;44704;50.122;19.932;2023-01-27T13:30:24;98601.05;;;-0.31;82.89
58919;BME280;44704;50.122;19.932;2023-01-27T13:32:58;98607.02;;;-0.28;82.57
58919;BME280;44704;50.122;19.932;2023-01-27T13:35:33;98607.52;;;-0.31;82.25
58919;BME280;44704;50.122;19.932;2023-01-27T13:38:20;98611.32;;;-0.34;82.32
58919;BME280;44704;50.122;19.932;2023-01-27T13:40:48;98616.46;;;-0.39;82.40
58919;BME280;44704;50.122;19.932;2023-01-27T13:43:22;98615.05;;;-0.41;82.66
58919;BME280;44704;50.122;19.932;2023-01-27T13:48:37;98614.23;;;-0.43;82.57
58919;BME280;44704;50.122;19.932;2023-01-27T13:51:15;98618.64;;;-0.43;82.73
58919;BME280;44704;50.122;19.932;2023-01-27T13:53:43;98618.71;;;-0.43;83.24
58919;BME280;44704;50.122;19.932;2023-01-27T13:58:48;98622.61;;;-0.42;83.13
58919;BME280;44704;50.122;19.932;2023-01-27T14:07:27;98625.81;;;-0.40;83.17
58919;BME280;44704;50.122;19.932;2023-01-27T14:12:47;98630.54;;;-0.42;83.06
58919;BME280;44704;50.122;19.932;2023-01-27T14:18:25;98634.09;;;-0.47;83.23
58919;BME280;44704;50.122;19.932;2023-01-27T14:23:40;98636.59;;;-0.53;83.02
58919;BME280;44704;50.122;19.932;2023-01-27T14:29:34;98644.24;;;-0.62;83.10
58919;BME280;44704;50.122;19.932;2023-01-27T14:43:22;98648.04;;;-0.67;82.81
58919;BME280;44704;50.122;19.932;2023-01-27T14:46:09;98651.27;;;-0.67;83.09
58919;BME280;44704;50.122;19.932;2023-01-27T14:51:33;98651.53;;;-0.69;82.26
58919;BME280;44704;50.122;19.932;2023-01-27T15:05:43;98657.98;;;-0.75;82.29
58919;BME280;44704;50.122;19.932;2023-01-27T15:19:52;98690.58;;;-0.71;82.29
58919;BME280;44704;50.122;19.932;2023-01-27T15:22:32;98688.64;;;-0.73;81.88
58919;BME280;44704;50.122;19.932;2023-01-27T15:25:22;98691.15;;;-0.73;81.84
58919;BME280;44704;50.122;19.932;2023-01-27T15:27:54;98694.92;;;-0.72;81.81
58919;BME280;44704;50.122;19.932;2023-01-27T15:30:33;98689.39;;;-0.72;81.86
58919;BME280;44704;50.122;19.932;2023-01-27T15:33:00;98688.30;;;-0.72;81.67
58919;BME280;44704;50.122;19.932;2023-01-27T15:35:35;98688.41;;;-0.71;81.83
58919;BME280;44704;50.122;19.932;2023-01-27T15:40:27;98692.32;;;-0.72;81.31
58919;BME280;44704;50.122;19.932;2023-01-27T15:45:26;98689.48;;;-0.78;79.48